Corpus Christi, TX (78401)

6:03 PM CDT on August 31, 2015 (GMT -0500)
Texas State Aquarium | | Change Station
CLOSE
Current Station
Personal Weather Station
Location: Corpus Christi, TX
Elevation: 36 ft
Nearby Weather Stations

Elev 36 ft 27.81 °N, 97.39 °W | Updated 6 seconds ago

Thunderstorm
Thunderstorm
84.8 °F
Feels Like 99 °F
N
11.0
Wind Variable Wind from NE
Gusts 12.0 mph

Today
High -- | Low -- °F
--% Chance of Precip.
Yesterday
High -- | Low -- °F
Precip. -- in
7:07 AM 7:51 PM
Waning Gibbous, 93% visible
Pressure 29.92 in
Visibility 10.0 miles
Clouds Few 1400 ft
Few 4500 ft
Few 6500 ft
Scattered Clouds 15000 ft
Mostly Cloudy 20000 ft
Mostly Cloudy 25000 ft
Heat Index 99 °F
Dew Point 80 °F
Humidity 86%
Rainfall in
Snow Depth Not available.
UV 0.0 out of 12
Pollen 7.00 out of 12
Air Quality Not available.
Flu Activity Not available.
METAR KCRP 312251Z 13012KT 10SM FEW014 FEW045 FEW065 SCT150 BKN200 BKN250 28/23 A2992 RMK AO2 SLP131 CB DSNT SW-W TCU DSNT S NW T02830228
Pressure 29.92 in
Visibility 10.0 miles
Clouds Few 1400 ft
Few 4500 ft
Few 6500 ft
Scattered Clouds 15000 ft
Mostly Cloudy 20000 ft
Mostly Cloudy 25000 ft
Heat Index 99 °F
Dew Point 80 °F
Humidity 86%
Rainfall in
Snow Depth Not available.
UV 0.0 out of 12
Pollen 7.00 out of 12
Air Quality Not available.
Flu Activity Not available.
METAR KCRP 312251Z 13012KT 10SM FEW014 FEW045 FEW065 SCT150 BKN200 BKN250 28/23 A2992 RMK AO2 SLP131 CB DSNT SW-W TCU DSNT S NW T02830228

10-Day Weather Forecast

×

Almanac

Astronomy

Aug. 31, 2015 Rise Set
Actual Time
Civil Twilight
Nautical Twilight
Astronomical Twilight
Moon
Length of Visible Light
Length of Day
Tomorrow will be .
, % of the Moon is Illuminated

Today's Extremes

State Highs State Lows

Community

WunderPhotos

Upload Photos

1,851,390 photos uploaded!

WunderBlogs® & News

Nearby

Air Quality

  Air Quality AQ Index Pollutant
Not available.

Snow Depth

Station Depth Elevation

Earthquake Activity

City Distance Mag. Time & Date
Minimum magnitude displayed is 2.5.

Coastal Water Temperatures

Place Temperature

Stations

Nearby Weather Stations

Station Location Temp. Windchill Dew Point Humidity Wind Precip. Elev Updated Type